Terminal Aerodrome Forecast
Issued by NWS Tampa Bay Area, FL

Current Version | Previous Version | Text Only | Print | Product List | Glossary On
Versions: 1 2 3 4 5 6 7 8 9 10 11 12 13 14 15 16
000
FTUS42 KTBW 260500
TAFSRQ
TAF
KSRQ 260537Z 2606/2706 22008KT P6SM SCT025
     FM260900 24014G22KT P6SM VCSH SCT015 BKN030
      TEMPO 2609/2613 4SM SHRA BKN015
     FM261300 30015G25KT P6SM VCSH SCT015 OVC035
     FM261600 30020G30KT P6SM FEW020 BKN035
     FM270300 30014G20KT P6SM SCT035=

USA.gov is the U.S. government's official web portal to all federal, state and local government web resources and services.